Time;durP1;ratioP1;P1;durP2;ratioP2;P2;SDS_P1;SDS_P2;PMS_P1;PMS_P2;Temp;Humidity;BMP_temperature;BMP_pressure;BME280_temperature;BME280_humidity;BME280_pressure;Samples;Min_cycle;Max_cycle;Signal;HPM_P1;HPM_P2
2023/07/22 00:00:40;;;;;;;12.63;7.45;;;15.40;99.90;;;;;;5095395;28;20157;-50
2023/07/22 00:03:06;;;;;;;11.80;6.68;;;15.40;99.90;;;;;;5095654;28;20169;-50
2023/07/22 00:05:31;;;;;;;9.07;6.43;;;15.40;99.90;;;;;;5095417;28;20264;-50
2023/07/22 00:07:57;;;;;;;6.93;5.97;;;15.40;99.90;;;;;;5095774;28;20167;-50
2023/07/22 00:10:22;;;;;;;9.95;5.90;;;15.40;99.90;;;;;;5095679;28;20521;-50
2023/07/22 00:12:48;;;;;;;7.72;6.40;;;15.40;99.90;;;;;;5095553;28;20213;-50
2023/07/22 00:15:14;;;;;;;9.25;6.10;;;15.40;99.90;;;;;;5095326;28;20671;-50
2023/07/22 00:17:41;;;;;;;14.93;6.07;;;15.40;99.90;;;;;;5084186;28;20177;-50
2023/07/22 00:20:10;;;;;;;9.68;6.05;;;15.40;99.90;;;;;;5075409;28;20170;-50
2023/07/22 00:22:37;;;;;;;6.88;5.60;;;17.00;99.90;;;;;;5075402;28;20154;-50
2023/07/22 00:25:03;;;;;;;10.98;6.50;;;15.40;99.90;;;;;;5075498;28;20174;-49
2023/07/22 00:27:28;;;;;;;14.90;6.88;;;15.40;99.90;;;;;;5074741;28;20181;-50
2023/07/22 00:29:54;;;;;;;14.23;6.95;;;15.40;99.90;;;;;;5074705;28;20170;-50
2023/07/22 00:32:19;;;;;;;11.80;6.80;;;15.30;99.90;;;;;;5074782;28;20189;-50
2023/07/22 00:34:45;;;;;;;11.50;7.03;;;15.30;99.90;;;;;;5056669;28;20206;-50
2023/07/22 00:37:10;;;;;;;17.20;7.00;;;15.20;99.90;;;;;;5074640;28;20625;-50
2023/07/22 00:39:36;;;;;;;11.32;7.03;;;15.20;99.90;;;;;;5075032;28;20184;-50
2023/07/22 00:42:02;;;;;;;10.90;6.22;;;15.30;99.90;;;;;;5074558;28;20154;-50
2023/07/22 00:44:27;;;;;;;15.32;7.00;;;15.20;99.90;;;;;;5074411;28;20172;-50
2023/07/22 00:46:57;;;;;;;12.77;6.85;;;15.20;99.90;;;;;;5074892;28;20264;-50
2023/07/22 00:49:25;;;;;;;12.27;7.40;;;15.00;99.90;;;;;;5074332;28;20696;-50
2023/07/22 00:51:50;;;;;;;14.05;7.38;;;14.90;99.90;;;;;;5074378;28;20165;-50
2023/07/22 00:54:16;;;;;;;11.77;7.30;;;15.00;99.90;;;;;;5074294;28;20208;-49
2023/07/22 00:56:43;;;;;;;10.88;7.40;;;14.90;99.90;;;;;;5056406;28;20172;-49
2023/07/22 00:59:09;;;;;;;13.13;7.72;;;14.90;99.90;;;;;;5074295;28;20622;-49
2023/07/22 01:01:34;;;;;;;11.55;7.20;;;14.90;99.90;;;;;;5074739;28;20173;-49
2023/07/22 01:04:01;;;;;;;10.77;7.13;;;15.00;99.90;;;;;;5074131;28;20533;-49
2023/07/22 01:06:29;;;;;;;11.18;6.18;;;14.80;99.90;;;;;;5079401;28;20169;-50
2023/07/22 01:08:57;;;;;;;9.70;6.47;;;14.80;99.90;;;;;;5093496;28;20656;-50
2023/07/22 01:11:22;;;;;;;11.43;6.53;;;14.80;99.90;;;;;;5094159;28;20262;-50
2023/07/22 01:13:49;;;;;;;8.85;6.30;;;14.80;99.90;;;;;;5094441;28;20235;-50
2023/07/22 01:16:15;;;;;;;11.43;6.35;;;14.90;99.90;;;;;;5094239;28;20194;-50
2023/07/22 01:18:41;;;;;;;8.77;6.05;;;14.90;99.90;;;;;;5094197;28;20165;-49
2023/07/22 01:21:08;;;;;;;6.40;5.38;;;14.90;99.90;;;;;;5094108;28;20700;-50
2023/07/22 01:23:35;;;;;;;14.38;5.97;;;14.80;99.90;;;;;;5094442;28;20230;-50
2023/07/22 01:26:02;;;;;;;7.35;5.80;;;14.80;99.90;;;;;;5090250;28;20177;-49
2023/07/22 01:28:27;;;;;;;11.93;5.65;;;14.90;99.90;;;;;;5056080;28;20211;-50
2023/07/22 01:30:54;;;;;;;9.25;5.80;;;14.90;99.90;;;;;;5073748;28;20162;-50
2023/07/22 01:33:20;;;;;;;14.15;6.40;;;14.90;99.90;;;;;;5073511;28;20524;-50
2023/07/22 01:35:45;;;;;;;9.18;5.72;;;14.80;99.90;;;;;;5073900;28;20186;-50
2023/07/22 01:38:11;;;;;;;7.22;5.50;;;14.90;99.90;;;;;;5073783;28;20219;-50
2023/07/22 01:40:36;;;;;;;9.15;5.68;;;14.90;99.90;;;;;;5073889;28;20173;-49
2023/07/22 01:43:02;;;;;;;11.23;6.35;;;14.90;99.90;;;;;;5073866;28;20166;-49
2023/07/22 01:45:28;;;;;;;8.30;5.68;;;15.00;99.90;;;;;;5074310;28;20193;-49
2023/07/22 01:47:53;;;;;;;9.48;6.10;;;15.00;99.90;;;;;;5093313;28;20178;-49
2023/07/22 01:50:19;;;;;;;6.32;5.32;;;14.90;99.90;;;;;;5093543;28;20176;-49
2023/07/22 01:52:46;;;;;;;9.18;6.85;;;14.90;99.90;;;;;;5093555;28;20252;-49
2023/07/22 01:55:12;;;;;;;9.82;6.30;;;14.80;99.90;;;;;;5093398;28;20628;-50
2023/07/22 01:57:39;;;;;;;8.85;5.85;;;14.90;99.90;;;;;;5091646;28;20248;-49
2023/07/22 02:00:06;;;;;;;10.43;5.93;;;14.80;99.90;;;;;;5076218;28;20180;-50
2023/07/22 02:02:32;;;;;;;13.50;6.53;;;14.80;99.90;;;;;;5093984;28;20177;-49
2023/07/22 02:04:57;;;;;;;6.70;5.15;;;14.80;99.90;;;;;;5093239;28;20169;-49
2023/07/22 02:07:26;;;;;;;6.88;5.32;;;14.80;99.90;;;;;;5073469;28;20235;-49
2023/07/22 02:09:51;;;;;;;6.80;5.30;;;14.90;99.90;;;;;;5072899;28;20211;-49
2023/07/22 02:12:17;;;;;;;8.23;5.47;;;14.90;99.90;;;;;;5072631;28;20214;-50
2023/07/22 02:14:43;;;;;;;7.70;5.35;;;14.90;99.90;;;;;;5072810;28;20202;-50
2023/07/22 02:17:09;;;;;;;10.80;4.93;;;14.80;99.90;;;;;;5072726;28;20625;-50
2023/07/22 02:19:34;;;;;;;10.07;6.00;;;14.80;99.90;;;;;;5073123;28;20216;-50
2023/07/22 02:22:00;;;;;;;8.93;5.70;;;14.80;99.90;;;;;;5054202;28;20524;-50
2023/07/22 02:24:25;;;;;;;8.13;5.50;;;14.80;99.90;;;;;;5072576;28;20163;-50
2023/07/22 02:26:51;;;;;;;11.13;5.75;;;14.80;99.90;;;;;;5089655;28;20218;-50
2023/07/22 02:29:18;;;;;;;8.32;5.93;;;14.80;99.90;;;;;;5092794;28;20165;-50
2023/07/22 02:31:43;;;;;;;11.52;6.20;;;14.70;99.90;;;;;;5092756;28;20625;-50
2023/07/22 02:34:09;;;;;;;11.93;6.57;;;14.80;99.90;;;;;;5074097;28;20231;-50
2023/07/22 02:36:34;;;;;;;7.30;5.60;;;14.70;99.90;;;;;;5093054;28;20161;-49
2023/07/22 02:39:00;;;;;;;8.50;5.80;;;14.70;99.90;;;;;;5092579;28;20169;-49
2023/07/22 02:41:25;;;;;;;11.35;6.07;;;14.80;99.90;;;;;;5092586;28;20165;-49
2023/07/22 02:43:52;;;;;;;7.97;5.88;;;14.70;99.90;;;;;;5092489;28;20172;-49
2023/07/22 02:46:17;;;;;;;9.90;5.13;;;14.70;99.90;;;;;;5077643;28;20181;-50
2023/07/22 02:48:43;;;;;;;9.60;5.95;;;14.60;99.90;;;;;;5072104;28;20158;-49
2023/07/22 02:51:10;;;;;;;8.65;6.05;;;14.60;99.90;;;;;;5072082;28;20166;-50
2023/07/22 02:53:37;;;;;;;10.23;6.28;;;14.60;99.90;;;;;;5072393;28;20197;-50
2023/07/22 02:56:03;;;;;;;10.15;6.43;;;14.60;99.90;;;;;;5072416;28;20174;-51
2023/07/22 02:58:29;;;;;;;12.57;6.32;;;14.60;99.90;;;;;;5072053;28;20165;-51
2023/07/22 03:00:57;;;;;;;10.05;6.50;;;14.60;99.90;;;;;;5072160;28;20220;-50
2023/07/22 03:03:23;;;;;;;8.77;6.03;;;14.70;99.90;;;;;;5071817;28;20174;-50
2023/07/22 03:05:48;;;;;;;9.90;6.15;;;14.60;99.90;;;;;;5071816;28;20170;-50
2023/07/22 03:08:14;;;;;;;8.73;5.78;;;14.40;99.90;;;;;;5072004;28;20166;-51
2023/07/22 03:10:40;;;;;;;8.25;6.53;;;14.40;99.90;;;;;;5071563;28;20170;-50
2023/07/22 03:13:05;;;;;;;11.05;6.03;;;14.20;99.90;;;;;;5072168;28;20300;-50
2023/07/22 03:15:32;;;;;;;8.18;6.38;;;14.30;99.90;;;;;;5080420;28;20213;-51
2023/07/22 03:17:59;;;;;;;9.05;6.38;;;14.30;99.90;;;;;;5091569;28;20184;-50
2023/07/22 03:20:25;;;;;;;10.82;6.47;;;14.30;99.90;;;;;;5088216;28;20181;-50
2023/07/22 03:22:51;;;;;;;9.13;6.65;;;14.30;99.90;;;;;;5071683;28;20252;-50
2023/07/22 03:25:17;;;;;;;9.13;6.75;;;14.30;99.90;;;;;;5071622;28;20188;-49
2023/07/22 03:27:44;;;;;;;13.48;6.20;;;14.30;99.90;;;;;;5071635;28;20243;-50
2023/07/22 03:30:15;;;;;;;8.38;5.97;;;14.30;99.90;;;;;;5071824;28;20212;-49
2023/07/22 03:32:42;;;;;;;8.48;6.80;;;14.30;99.90;;;;;;5070977;28;20173;-50
2023/07/22 03:35:11;;;;;;;10.48;6.20;;;14.30;99.90;;;;;;5071454;28;20693;-49
2023/07/22 03:37:38;;;;;;;9.60;6.47;;;14.30;99.90;;;;;;5071465;28;20165;-50
2023/07/22 03:40:10;;;;;;;8.27;5.65;;;15.00;99.90;;;;;;5071921;28;20188;-50
2023/07/22 03:42:36;;;;;;;7.60;5.32;;;14.30;99.90;;;;;;5072097;28;20166;-49
2023/07/22 03:45:02;;;;;;;9.27;6.15;;;14.30;99.90;;;;;;5072269;28;20236;-50
2023/07/22 03:47:27;;;;;;;11.18;6.15;;;14.20;99.90;;;;;;5071261;28;20173;-49
2023/07/22 03:49:53;;;;;;;10.65;6.20;;;14.20;99.90;;;;;;5071396;28;20174;-50
2023/07/22 03:52:18;;;;;;;10.35;5.97;;;14.20;99.90;;;;;;5071389;28;20169;-50
2023/07/22 03:54:45;;;;;;;10.73;6.55;;;14.20;99.90;;;;;;5053258;28;20202;-50
2023/07/22 03:57:10;;;;;;;9.95;6.25;;;14.30;99.90;;;;;;5071207;28;20231;-49
2023/07/22 03:59:36;;;;;;;10.43;6.40;;;14.30;99.90;;;;;;5071661;28;20170;-49
2023/07/22 04:02:02;;;;;;;9.63;6.85;;;14.30;99.90;;;;;;5071961;28;20176;-50
2023/07/22 04:04:28;;;;;;;11.77;6.65;;;14.30;99.90;;;;;;5071102;28;20185;-50
2023/07/22 04:06:53;;;;;;;9.85;6.50;;;14.40;99.90;;;;;;5084706;28;20181;-50
2023/07/22 04:09:19;;;;;;;11.38;6.32;;;14.50;99.90;;;;;;5091350;28;20177;-49
2023/07/22 04:11:44;;;;;;;10.55;6.70;;;14.50;99.90;;;;;;5091270;28;20225;-49
2023/07/22 04:14:12;;;;;;;11.27;6.35;;;14.60;99.90;;;;;;5091098;28;20209;-49
2023/07/22 04:16:38;;;;;;;8.90;6.57;;;14.60;99.90;;;;;;5057248;28;20174;-50
2023/07/22 04:19:03;;;;;;;8.55;6.38;;;14.60;99.90;;;;;;5091663;28;20161;-50
2023/07/22 04:21:29;;;;;;;14.80;6.70;;;14.60;99.90;;;;;;5091216;28;20173;-50
2023/07/22 04:23:54;;;;;;;15.05;7.18;;;14.60;99.90;;;;;;5090895;28;20166;-50
2023/07/22 04:26:20;;;;;;;7.07;5.80;;;14.70;99.90;;;;;;5089549;28;20178;-49
2023/07/22 04:28:46;;;;;;;8.20;6.35;;;14.70;99.90;;;;;;5091054;28;20212;-49
2023/07/22 04:31:11;;;;;;;10.40;6.18;;;14.70;99.90;;;;;;5090611;28;20169;-49
2023/07/22 04:33:37;;;;;;;10.20;7.43;;;14.70;99.90;;;;;;5091091;28;20169;-49
2023/07/22 04:36:02;;;;;;;12.18;7.22;;;14.80;99.90;;;;;;5091455;28;20189;-50
2023/07/22 04:38:28;;;;;;;11.55;7.20;;;14.70;99.90;;;;;;5091297;28;20635;-50
2023/07/22 04:40:54;;;;;;;14.05;6.55;;;14.80;99.90;;;;;;5091102;28;20169;-50
2023/07/22 04:43:19;;;;;;;11.77;6.90;;;14.90;99.90;;;;;;5091027;28;20161;-50
2023/07/22 04:45:47;;;;;;;9.45;6.80;;;14.90;99.90;;;;;;5093947;28;20534;-50
2023/07/22 04:48:19;;;;;;;12.13;7.40;;;15.00;99.90;;;;;;5094266;28;20205;-50
2023/07/22 04:50:45;;;;;;;10.98;6.82;;;15.10;99.90;;;;;;5094612;28;20180;-49
2023/07/22 04:53:12;;;;;;;12.38;7.15;;;15.20;99.90;;;;;;5094544;28;20179;-49
2023/07/22 04:55:38;;;;;;;9.07;6.47;;;15.30;99.90;;;;;;5085540;28;20313;-49
2023/07/22 04:58:04;;;;;;;11.73;7.75;;;15.40;99.90;;;;;;5074640;28;20623;-49
2023/07/22 05:00:30;;;;;;;10.77;7.45;;;15.40;99.90;;;;;;5081739;28;20536;-49
2023/07/22 05:02:56;;;;;;;11.82;6.95;;;15.40;99.90;;;;;;5076300;28;20165;-49
2023/07/22 05:05:21;;;;;;;15.75;7.43;;;15.50;99.90;;;;;;5094165;28;20168;-49
2023/07/22 05:07:49;;;;;;;16.20;9.00;;;15.40;99.90;;;;;;5088843;28;20177;-49
2023/07/22 05:10:15;;;;;;;11.40;7.45;;;15.50;99.90;;;;;;5074361;28;20205;-49
2023/07/22 05:12:42;;;;;;;17.50;8.60;;;15.40;99.90;;;;;;5073752;28;20221;-49
2023/07/22 05:15:09;;;;;;;11.52;7.38;;;15.40;99.90;;;;;;5073736;28;20574;-49
2023/07/22 05:17:35;;;;;;;9.90;6.38;;;15.40;99.90;;;;;;5074519;28;20505;-49
2023/07/22 05:20:00;;;;;;;9.35;6.90;;;15.40;99.90;;;;;;5074003;28;20211;-48
2023/07/22 05:22:26;;;;;;;9.45;7.07;;;15.50;99.90;;;;;;5073586;28;20253;-49
2023/07/22 05:24:51;;;;;;;9.98;6.80;;;15.60;99.90;;;;;;5075624;28;20173;-49
2023/07/22 05:27:18;;;;;;;11.18;6.90;;;15.70;99.90;;;;;;5075239;28;20166;-49
2023/07/22 05:29:44;;;;;;;9.32;6.60;;;15.80;99.90;;;;;;5093545;28;20168;-49
2023/07/22 05:32:10;;;;;;;12.32;6.53;;;15.80;99.90;;;;;;5093766;28;20202;-49
2023/07/22 05:34:36;;;;;;;10.40;6.18;;;15.80;99.90;;;;;;5093769;28;20774;-49
2023/07/22 05:37:02;;;;;;;10.00;6.65;;;15.80;99.90;;;;;;5094487;28;20169;-49
2023/07/22 05:39:27;;;;;;;10.30;5.97;;;15.80;99.90;;;;;;5093804;28;20175;-49
2023/07/22 05:41:53;;;;;;;8.45;5.97;;;16.00;99.90;;;;;;5093684;28;20173;-48
2023/07/22 05:44:18;;;;;;;7.38;6.10;;;16.00;99.90;;;;;;5075608;28;20167;-49
2023/07/22 05:46:44;;;;;;;8.50;5.93;;;16.00;99.90;;;;;;5093700;28;20183;-49
2023/07/22 05:49:10;;;;;;;6.93;5.38;;;16.10;99.90;;;;;;5093630;28;20256;-49
2023/07/22 05:51:36;;;;;;;5.95;5.30;;;16.10;99.90;;;;;;5093498;28;20174;-50
2023/07/22 05:54:02;;;;;;;6.25;5.28;;;16.10;99.90;;;;;;5094070;28;20274;-50
2023/07/22 05:56:28;;;;;;;13.48;5.30;;;16.10;99.90;;;;;;5076842;28;20307;-49
2023/07/22 05:58:54;;;;;;;7.18;5.25;;;16.20;99.90;;;;;;5055236;28;20201;-49
2023/07/22 06:01:19;;;;;;;8.82;5.35;;;16.30;99.90;;;;;;5073114;28;20170;-49
2023/07/22 06:03:45;;;;;;;8.13;5.10;;;16.40;99.90;;;;;;5073276;28;20726;-48
2023/07/22 06:06:11;;;;;;;7.25;4.97;;;16.50;99.90;;;;;;5073034;28;20655;-49
2023/07/22 06:08:36;;;;;;;6.05;5.38;;;16.70;99.90;;;;;;5073082;28;20181;-49
2023/07/22 06:11:02;;;;;;;7.70;4.95;;;16.70;99.90;;;;;;5073231;28;20225;-47
2023/07/22 06:13:27;;;;;;;6.90;4.97;;;16.50;99.90;;;;;;5073136;28;20177;-47
2023/07/22 06:15:53;;;;;;;7.75;4.97;;;16.60;99.90;;;;;;5072789;28;20178;-48
2023/07/22 06:18:18;;;;;;;7.53;5.05;;;16.60;99.90;;;;;;5072806;28;20184;-49
2023/07/22 06:20:45;;;;;;;11.45;5.97;;;16.70;99.90;;;;;;5072740;28;20252;-47
2023/07/22 06:23:10;;;;;;;5.18;4.65;;;16.90;99.90;;;;;;5072721;28;20170;-47
2023/07/22 06:25:36;;;;;;;6.38;4.88;;;17.20;99.90;;;;;;5080451;28;20578;-47
2023/07/22 06:28:02;;;;;;;6.90;5.28;;;17.20;99.90;;;;;;5092850;28;20177;-48
2023/07/22 06:30:27;;;;;;;5.20;4.70;;;17.40;99.90;;;;;;5092857;28;20172;-48
2023/07/22 06:32:53;;;;;;;5.93;4.97;;;17.50;99.90;;;;;;5074282;28;20242;-47
2023/07/22 06:35:18;;;;;;;9.05;5.40;;;17.70;99.90;;;;;;5072269;28;20198;-47
2023/07/22 06:37:44;;;;;;;8.95;5.40;;;17.70;99.90;;;;;;5072353;28;20158;-47
2023/07/22 06:40:10;;;;;;;16.67;5.55;;;17.70;99.90;;;;;;5054476;28;20658;-47
2023/07/22 06:42:36;;;;;;;9.20;5.47;;;17.60;99.90;;;;;;5072256;28;20170;-47
2023/07/22 06:45:02;;;;;;;8.15;5.40;;;17.70;99.90;;;;;;5072966;28;20252;-48
2023/07/22 06:47:28;;;;;;;9.68;5.65;;;17.70;99.90;;;;;;5072158;28;20162;-48
2023/07/22 06:49:53;;;;;;;9.32;6.03;;;17.80;99.90;;;;;;5072160;28;20654;-47
2023/07/22 06:52:19;;;;;;;6.50;5.07;;;17.70;99.90;;;;;;5072362;28;20170;-47
2023/07/22 06:54:44;;;;;;;7.78;6.10;;;17.70;99.90;;;;;;5072045;28;20205;-47
2023/07/22 06:57:10;;;;;;;6.18;5.40;;;17.70;99.90;;;;;;5092210;28;20161;-47
2023/07/22 06:59:35;;;;;;;6.88;5.43;;;17.70;99.90;;;;;;5092250;28;20176;-47
2023/07/22 07:02:02;;;;;;;6.68;5.78;;;17.70;99.90;;;;;;5092797;28;20252;-47
2023/07/22 07:04:28;;;;;;;5.90;5.15;;;17.60;99.90;;;;;;5092347;28;20169;-47
2023/07/22 07:06:54;;;;;;;8.77;6.22;;;17.60;99.90;;;;;;5091869;28;20171;-48
2023/07/22 07:09:19;;;;;;;9.10;6.00;;;17.70;99.90;;;;;;5092103;28;20193;-48
2023/07/22 07:11:45;;;;;;;7.30;5.15;;;17.70;99.90;;;;;;5091773;28;20205;-47
2023/07/22 07:14:10;;;;;;;9.50;5.70;;;17.70;99.90;;;;;;5091913;28;20201;-47
2023/07/22 07:16:36;;;;;;;7.03;5.50;;;17.70;99.90;;;;;;5091968;28;20174;-47
2023/07/22 07:19:02;;;;;;;13.35;5.97;;;17.70;99.90;;;;;;5092299;28;20222;-48
2023/07/22 07:21:28;;;;;;;9.65;5.95;;;17.80;99.90;;;;;;5091863;28;20217;-47
2023/07/22 07:23:54;;;;;;;11.07;5.95;;;17.90;99.90;;;;;;5092116;28;20176;-47
2023/07/22 07:26:21;;;;;;;7.85;5.20;;;17.90;99.90;;;;;;5091728;28;20502;-47
2023/07/22 07:28:49;;;;;;;11.98;6.50;;;18.00;99.90;;;;;;5092058;28;20169;-47
2023/07/22 07:31:14;;;;;;;7.53;5.85;;;18.20;99.90;;;;;;5091908;28;20168;-47
2023/07/22 07:33:40;;;;;;;7.28;5.88;;;18.30;99.90;;;;;;5091592;28;20264;-47
2023/07/22 07:36:05;;;;;;;10.70;6.22;;;18.30;99.90;;;;;;5091985;28;20184;-47
2023/07/22 07:38:31;;;;;;;9.43;6.85;;;18.30;99.90;;;;;;5092328;28;20629;-47
2023/07/22 07:41:03;;;;;;;11.48;6.80;;;18.20;99.90;;;;;;5091586;28;20652;-47
2023/07/22 07:43:29;;;;;;;9.65;6.90;;;18.20;99.90;;;;;;5091804;28;20200;-47
2023/07/22 07:46:24;;;;;;;12.35;6.38;;;18.10;99.90;;;;;;5076539;28;20209;-47
2023/07/22 07:48:55;;;;;;;8.55;6.00;;;18.30;99.90;;;;;;5071540;28;20198;-47
2023/07/22 07:51:22;;;;;;;8.43;5.80;;;18.10;99.90;;;;;;5071538;28;20173;-47
2023/07/22 07:53:48;;;;;;;8.10;6.07;;;18.30;99.90;;;;;;5071523;28;20209;-47
2023/07/22 07:56:15;;;;;;;8.93;6.95;;;18.60;99.90;;;;;;5071549;28;20584;-47
2023/07/22 07:58:40;;;;;;;8.93;5.80;;;18.60;99.90;;;;;;5071327;28;20641;-48
2023/07/22 08:01:07;;;;;;;10.18;7.15;;;18.80;99.90;;;;;;5085843;28;20181;-47
2023/07/22 08:03:34;;;;;;;10.57;6.78;;;19.00;99.90;;;;;;5091834;28;20621;-47
2023/07/22 08:06:00;;;;;;;12.32;6.88;;;19.10;99.90;;;;;;5091630;28;20259;-47
2023/07/22 08:08:26;;;;;;;12.43;7.75;;;19.20;99.90;;;;;;5085197;28;20216;-47
2023/07/22 08:11:04;;;;;;;10.68;7.45;;;19.40;99.90;;;;;;5070994;28;20217;-48
2023/07/22 08:13:31;;;;;;;8.45;6.40;;;19.20;99.90;;;;;;5071002;28;20517;-47
2023/07/22 08:15:58;;;;;;;11.10;6.97;;;19.20;99.90;;;;;;5071322;28;20247;-47
2023/07/22 08:18:24;;;;;;;9.35;7.40;;;19.50;99.90;;;;;;5071284;28;20170;-47
2023/07/22 08:20:53;;;;;;;10.80;6.55;;;19.80;99.90;;;;;;5088690;28;20188;-47
2023/07/22 08:23:20;;;;;;;8.52;6.57;;;19.90;99.90;;;;;;5095251;28;20185;-47
2023/07/22 08:25:46;;;;;;;12.60;6.40;;;20.50;99.90;;;;;;5095139;28;20173;-47
2023/07/22 08:28:11;;;;;;;10.18;6.80;;;20.70;99.90;;;;;;5088786;28;20261;-47
2023/07/22 08:30:39;;;;;;;8.85;7.15;;;20.80;99.90;;;;;;5074825;28;20736;-48
2023/07/22 08:33:06;;;;;;;10.77;6.43;;;20.90;99.90;;;;;;5074771;28;20163;-47
2023/07/22 08:35:36;;;;;;;8.10;6.20;;;20.80;99.90;;;;;;5075083;28;20206;-47
2023/07/22 08:38:03;;;;;;;7.78;6.60;;;21.10;99.90;;;;;;5075297;28;20235;-47
2023/07/22 08:40:39;;;;;;;7.88;6.03;;;21.20;99.90;;;;;;5074575;28;20235;-47
2023/07/22 08:43:06;;;;;;;6.60;6.00;;;21.10;99.90;;;;;;5074995;28;20234;-47
2023/07/22 08:45:36;;;;;;;6.45;4.88;;;20.90;99.90;;;;;;5057237;28;20166;-47
2023/07/22 08:48:12;;;;;;;6.60;5.82;;;20.50;99.90;;;;;;5075131;28;20181;-48
2023/07/22 08:50:50;;;;;;;6.55;5.90;;;20.30;99.90;;;;;;5074492;28;20219;-49
2023/07/22 08:53:16;;;;;;;6.45;5.63;;;20.10;99.90;;;;;;5074420;28;20181;-47
2023/07/22 08:55:43;;;;;;;6.47;5.43;;;20.20;99.90;;;;;;5074501;28;20212;-51
2023/07/22 08:58:09;;;;;;;6.65;4.75;;;20.40;99.90;;;;;;5078110;28;20168;-48
2023/07/22 09:00:35;;;;;;;5.88;4.70;;;20.60;99.90;;;;;;5074935;28;20173;-48
2023/07/22 09:03:01;;;;;;;4.28;3.70;;;20.80;99.90;;;;;;5056609;28;20524;-47
2023/07/22 09:05:28;;;;;;;4.40;3.97;;;20.90;99.90;;;;;;5074146;28;20240;-49
2023/07/22 09:07:55;;;;;;;5.18;4.22;;;21.00;99.90;;;;;;5074098;28;20201;-47
2023/07/22 09:10:21;;;;;;;4.57;4.03;;;21.10;99.90;;;;;;5074009;28;20180;-47
2023/07/22 09:12:47;;;;;;;4.80;3.97;;;20.90;99.90;;;;;;5073896;28;20218;-48
2023/07/22 09:15:13;;;;;;;5.60;4.60;;;20.90;99.90;;;;;;5073851;28;20231;-47
2023/07/22 09:17:40;;;;;;;6.97;4.30;;;21.10;99.90;;;;;;5074191;28;20166;-50
2023/07/22 09:20:07;;;;;;;4.72;4.30;;;21.10;99.90;;;;;;5073846;28;20176;-47
2023/07/22 09:22:34;;;;;;;4.90;4.40;;;21.10;99.90;;;;;;5074605;28;20174;-48
2023/07/22 09:25:22;;;;;;;6.03;4.10;;;21.00;99.90;;;;;;5074211;28;20638;-48
2023/07/22 09:27:50;;;;;;;5.82;3.88;;;20.80;99.90;;;;;;5075937;28;20166;-48
2023/07/22 09:30:23;;;;;;;4.47;4.03;;;20.90;99.90;;;;;;5092887;28;20189;-48
2023/07/22 09:32:50;;;;;;;3.85;3.53;;;20.80;99.90;;;;;;5093901;28;20248;-47
2023/07/22 09:35:17;;;;;;;4.03;3.70;;;21.10;99.90;;;;;;5093660;28;20280;-49
2023/07/22 09:37:42;;;;;;;3.97;3.58;;;21.40;99.90;;;;;;5093721;28;20219;-48
2023/07/22 09:40:17;;;;;;;4.82;3.17;;;21.60;99.90;;;;;;5093749;28;20169;-48
2023/07/22 09:42:48;;;;;;;5.50;3.80;;;21.70;99.90;;;;;;5093554;28;20640;-46
2023/07/22 09:45:14;;;;;;;3.53;3.17;;;21.80;99.90;;;;;;5093940;28;20169;-47
2023/07/22 09:47:44;;;;;;;5.38;3.17;;;22.10;99.90;;;;;;5075810;28;20629;-47
2023/07/22 09:50:25;;;;;;;3.97;3.30;;;22.00;99.90;;;;;;5093934;28;20177;-46
2023/07/22 09:52:54;;;;;;;4.32;3.92;;;21.90;99.90;;;;;;5093785;28;20176;-47
2023/07/22 09:55:25;;;;;;;5.13;3.60;;;22.20;99.90;;;;;;5093340;28;20232;-47
2023/07/22 09:57:54;;;;;;;4.55;3.22;;;22.20;99.90;;;;;;5090686;28;20649;-47
2023/07/22 10:00:20;;;;;;;6.22;3.53;;;21.90;99.90;;;;;;5073027;28;20235;-47
2023/07/22 10:02:49;;;;;;;5.25;3.47;;;21.90;99.90;;;;;;5073084;28;20565;-47
2023/07/22 10:05:17;;;;;;;4.70;3.75;;;22.20;99.90;;;;;;5073049;28;20170;-47
2023/07/22 10:07:45;;;;;;;4.63;3.45;;;22.30;99.90;;;;;;5073050;28;20162;-47
2023/07/22 10:10:12;;;;;;;6.55;3.35;;;22.90;99.90;;;;;;5073256;28;20180;-47
2023/07/22 10:12:41;;;;;;;3.33;3.00;;;22.70;99.90;;;;;;5072748;28;20225;-47
2023/07/22 10:15:08;;;;;;;3.60;3.30;;;22.50;99.90;;;;;;5073067;28;20208;-47
2023/07/22 10:17:35;;;;;;;3.22;2.92;;;22.20;99.90;;;;;;5073284;28;20507;-47
2023/07/22 10:20:06;;;;;;;4.50;2.60;;;22.40;99.90;;;;;;5073293;28;20162;-47
2023/07/22 10:22:34;;;;;;;3.20;2.90;;;21.90;99.90;;;;;;5073432;28;20249;-47
2023/07/22 10:25:01;;;;;;;5.82;3.13;;;21.70;99.90;;;;;;5073090;28;20253;-47
2023/07/22 10:27:28;;;;;;;6.05;2.70;;;21.60;99.90;;;;;;5073997;28;20154;-47
2023/07/22 10:29:54;;;;;;;3.83;2.88;;;21.70;99.90;;;;;;5092786;28;20581;-47
2023/07/22 10:32:20;;;;;;;3.45;3.15;;;21.90;99.90;;;;;;5093098;28;20173;-46
2023/07/22 10:34:46;;;;;;;3.65;2.90;;;21.90;99.90;;;;;;5092724;28;20197;-56
2023/07/22 10:37:12;;;;;;;3.10;2.67;;;21.70;99.90;;;;;;5092408;28;20672;-54
2023/07/22 10:39:37;;;;;;;3.55;3.20;;;21.90;99.90;;;;;;5092736;28;20169;-56
2023/07/22 10:42:06;;;;;;;4.07;3.13;;;22.20;99.90;;;;;;5092534;28;20249;-55
2023/07/22 10:44:35;;;;;;;4.07;3.05;;;22.30;99.90;;;;;;5093273;28;20574;-56
2023/07/22 10:47:01;;;;;;;5.80;3.38;;;22.40;99.90;;;;;;5092974;28;20180;-55
2023/07/22 10:49:51;;;;;;;4.00;2.95;;;22.60;99.90;;;;;;5092642;28;20569;-56
2023/07/22 10:52:40;;;;;;;4.32;3.53;;;22.80;99.90;;;;;;5092669;28;20165;-54
2023/07/22 10:55:17;;;;;;;3.42;2.92;;;22.90;97.70;;;;;;5092306;28;20705;-56
2023/07/22 10:57:55;;;;;;;3.30;2.70;;;23.10;96.40;;;;;;5088656;28;20177;-55
2023/07/22 11:00:21;;;;;;;3.15;2.80;;;22.90;95.30;;;;;;5071841;28;20657;-56
2023/07/22 11:03:10;;;;;;;4.45;2.78;;;22.90;94.90;;;;;;5071987;28;20176;-54
2023/07/22 11:05:55;;;;;;;4.57;3.05;;;22.90;95.80;;;;;;5072177;28;20227;-54
2023/07/22 11:08:40;;;;;;;3.30;3.00;;;22.90;96.00;;;;;;5072104;28;20166;-57
2023/07/22 11:11:06;;;;;;;3.28;2.65;;;23.10;95.00;;;;;;5071785;28;20228;-56
2023/07/22 11:13:39;;;;;;;3.85;2.63;;;23.20;94.60;;;;;;5072226;28;20162;-54
2023/07/22 11:16:08;;;;;;;4.78;3.10;;;23.30;94.60;;;;;;5054256;28;20262;-57
2023/07/22 11:18:41;;;;;;;3.00;2.65;;;23.60;93.80;;;;;;5054216;28;20197;-52
2023/07/22 11:21:10;;;;;;;3.20;2.67;;;23.60;91.10;;;;;;5071628;28;20175;-56
2023/07/22 11:23:36;;;;;;;5.32;2.60;;;23.80;89.10;;;;;;5071916;28;20210;-57
2023/07/22 11:26:03;;;;;;;4.15;2.97;;;23.90;87.30;;;;;;5072072;28;20166;-53
2023/07/22 11:28:29;;;;;;;3.65;3.15;;;23.80;88.50;;;;;;5083657;28;20173;-56
2023/07/22 11:30:55;;;;;;;3.42;3.00;;;23.70;89.90;;;;;;5091763;28;20190;-53
2023/07/22 11:33:21;;;;;;;2.67;2.47;;;23.50;90.30;;;;;;5073270;28;20259;-56
2023/07/22 11:35:47;;;;;;;5.15;2.72;;;23.70;84.50;;;;;;5091650;28;20212;-54
2023/07/22 11:38:12;;;;;;;4.07;2.92;;;23.80;84.00;;;;;;5091688;28;20160;-57
2023/07/22 11:40:38;;;;;;;6.63;2.63;;;23.80;86.60;;;;;;5091715;28;20175;-56
2023/07/22 11:43:04;;;;;;;2.92;2.47;;;23.70;83.70;;;;;;5092329;28;20200;-56
2023/07/22 11:45:31;;;;;;;2.97;2.40;;;23.80;82.50;;;;;;5091801;28;20214;-53
2023/07/22 11:47:56;;;;;;;2.95;2.28;;;23.90;82.00;;;;;;5091559;28;20162;-55
2023/07/22 11:50:34;;;;;;;2.92;2.47;;;23.60;79.70;;;;;;5091761;28;20168;-56
2023/07/22 11:53:00;;;;;;;5.13;3.17;;;23.70;84.60;;;;;;5091759;28;20230;-52
2023/07/22 11:55:25;;;;;;;3.90;2.90;;;23.80;86.00;;;;;;5090471;28;20680;-55
2023/07/22 11:57:54;;;;;;;4.78;3.08;;;23.60;84.60;;;;;;5079836;28;20174;-53
2023/07/22 12:00:20;;;;;;;4.50;2.67;;;24.00;85.10;;;;;;5070997;28;20198;-56
2023/07/22 12:02:46;;;;;;;3.80;2.63;;;24.10;83.90;;;;;;5053447;28;20179;-57
2023/07/22 12:05:20;;;;;;;4.97;2.80;;;23.90;81.80;;;;;;5091095;28;20214;-56
2023/07/22 12:07:45;;;;;;;4.40;3.03;;;23.90;82.00;;;;;;5091086;28;20161;-57
2023/07/22 12:10:11;;;;;;;4.85;2.85;;;24.20;82.50;;;;;;5090980;28;20165;-53
2023/07/22 12:12:49;;;;;;;3.75;2.95;;;24.40;82.00;;;;;;5090526;28;20225;-52
2023/07/22 12:15:17;;;;;;;3.13;2.80;;;24.30;82.00;;;;;;5073826;28;20251;-50
2023/07/22 12:17:53;;;;;;;2.70;2.50;;;24.30;81.60;;;;;;5072937;28;20212;-53
2023/07/22 12:20:22;;;;;;;2.88;2.65;;;24.50;83.20;;;;;;5085018;28;20176;-51
2023/07/22 12:22:48;;;;;;;4.60;2.85;;;24.40;82.00;;;;;;5082629;28;20204;-53
2023/07/22 12:25:14;;;;;;;3.33;2.80;;;24.50;81.20;;;;;;5071053;28;20208;-56
2023/07/22 12:27:40;;;;;;;3.67;2.97;;;24.70;81.50;;;;;;5077319;28;20166;-57
2023/07/22 12:30:06;;;;;;;3.95;2.95;;;24.70;81.70;;;;;;5074498;28;20166;-57
2023/07/22 12:32:33;;;;;;;6.05;2.67;;;25.00;82.30;;;;;;5081455;28;20533;-55
2023/07/22 12:34:58;;;;;;;3.72;2.60;;;25.20;80.80;;;;;;5075690;28;20269;-52
2023/07/22 12:37:25;;;;;;;2.70;2.50;;;24.90;78.40;;;;;;5070551;28;20641;-53
2023/07/22 12:39:51;;;;;;;3.70;2.55;;;25.00;78.50;;;;;;5070567;28;20552;-56
2023/07/22 12:42:16;;;;;;;3.03;2.72;;;24.80;76.70;;;;;;5070617;28;20181;-54